Time;durP1;ratioP1;P1;durP2;ratioP2;P2;SDS_P1;SDS_P2;PMS_P1;PMS_P2;Temp;Humidity;BMP_temperature;BMP_pressure;BME280_temperature;BME280_humidity;BME280_pressure;Samples;Min_cycle;Max_cycle;Signal;HPM_P1;HPM_P2
2023/08/01 05:30:40;;;;;;;60.28;11.40;;;;;;;20.08;71.95;99807.25;5521619;32;70559;-62
2023/08/01 05:33:42;;;;;;;25.67;8.52;;;;;;;20.18;74.41;99818.34;5527295;32;34299;-62
2023/08/01 05:36:45;;;;;;;184.75;15.77;;;;;;;20.28;78.40;99813.47;5528191;32;33557;-62
2023/08/01 05:39:47;;;;;;;459.30;30.83;;;;;;;20.61;81.05;99807.50;5527363;32;33693;-62
2023/08/01 05:42:49;;;;;;;86.03;11.70;;;;;;;20.91;75.18;99818.53;5527654;32;34285;-62
2023/08/01 05:45:52;;;;;;;16.83;6.40;;;;;;;21.00;70.24;99810.91;5527957;32;34409;-62
2023/08/01 05:48:55;;;;;;;1300.13;95.38;;;;;;;21.05;68.62;99818.00;5528192;32;33561;-62
2023/08/01 05:51:57;;;;;;;385.85;27.55;;;;;;;21.26;67.92;99807.44;5527619;32;34358;-65
2023/08/01 05:54:59;;;;;;;19.95;5.30;;;;;;;21.38;68.46;99809.19;5527964;32;33677;-65
2023/08/01 05:58:02;;;;;;;15.30;6.32;;;;;;;21.72;80.97;99801.09;5527790;32;33634;-65
2023/08/01 06:01:05;;;;;;;14.90;6.05;;;;;;;21.91;70.16;99805.63;5528006;32;33712;-65
2023/08/01 06:04:07;;;;;;;14.87;6.05;;;;;;;22.04;75.59;99805.03;5524009;32;34261;-65
2023/08/01 06:07:10;;;;;;;15.13;6.07;;;;;;;22.34;76.75;99806.97;5527903;32;33665;-65
2023/08/01 06:10:12;;;;;;;31.62;7.87;;;;;;;22.33;65.92;99810.84;5527698;32;33587;-65
2023/08/01 06:13:16;;;;;;;16.80;6.55;;;;;;;22.41;66.61;99812.50;5527151;32;34283;-65
2023/08/01 06:16:18;;;;;;;31.02;8.18;;;;;;;22.50;66.16;99813.00;5527164;32;34325;-65
2023/08/01 06:19:20;;;;;;;17.10;6.12;;;;;;;22.50;64.56;99813.00;5527775;32;33792;-65
2023/08/01 06:22:23;;;;;;;37.30;6.12;;;;;;;22.52;63.62;99809.91;5526518;32;34313;-64
2023/08/01 06:25:25;;;;;;;16.58;5.30;;;;;;;22.71;74.84;99806.97;5526294;32;32464;-65
2023/08/01 06:28:28;;;;;;;53.47;6.35;;;;;;;22.98;68.04;99802.16;5526957;32;33692;-65
2023/08/01 06:31:30;;;;;;;91.03;7.28;;;;;;;23.14;73.25;99812.03;5527101;32;34408;-65
2023/08/01 06:34:33;;;;;;;21.08;4.18;;;;;;;23.32;69.39;99807.50;5526673;32;34239;-65
2023/08/01 06:37:35;;;;;;;8.48;3.47;;;;;;;23.26;62.68;99800.81;5527087;32;33587;-65
2023/08/01 06:40:37;;;;;;;80.03;7.07;;;;;;;23.28;66.64;99790.28;5531532;32;33314;-65
2023/08/01 06:43:39;;;;;;;13.57;5.00;;;;;;;23.39;63.72;99796.59;5521360;32;33607;-65
2023/08/01 06:46:42;;;;;;;45.42;6.25;;;;;;;23.43;60.85;99796.63;5508082;32;33301;-65
2023/08/01 06:49:45;;;;;;;78.93;7.10;;;;;;;23.53;63.72;99792.38;5508194;32;33806;-65
2023/08/01 06:52:47;;;;;;;122.32;13.38;;;;;;;23.80;69.73;99787.47;5508088;32;33588;-65
2023/08/01 06:55:49;;;;;;;15.27;4.35;;;;;;;23.79;63.22;99792.16;5507747;32;33276;-65
2023/08/01 06:58:52;;;;;;;64.97;6.55;;;;;;;23.97;63.10;99786.75;5508151;32;34348;-65
2023/08/01 07:01:55;;;;;;;20.50;4.40;;;;;;;24.10;65.32;99784.47;5507810;32;33736;-65
2023/08/01 07:04:58;;;;;;;36.97;5.57;;;;;;;24.24;66.34;99778.22;5522502;32;34454;-65
2023/08/01 07:08:00;;;;;;;45.20;6.93;;;;;;;24.28;65.26;99779.84;5526919;32;34324;-65
2023/08/01 07:11:02;;;;;;;83.50;10.68;;;;;;;24.26;61.38;99781.38;5527154;32;33666;-65
2023/08/01 07:14:05;;;;;;;13.73;3.50;;;;;;;24.34;63.41;99772.03;5526135;32;34292;-65
2023/08/01 07:17:07;;;;;;;25.77;4.05;;;;;;;24.43;66.16;99774.41;5526937;32;33678;-65
2023/08/01 07:20:10;;;;;;;20.25;3.60;;;;;;;24.48;64.34;99774.81;5512937;32;33608;-65
2023/08/01 07:23:12;;;;;;;13.05;3.65;;;;;;;24.57;64.09;99758.78;5526543;32;33777;-65
2023/08/01 07:26:14;;;;;;;16.55;3.72;;;;;;;24.60;59.49;99762.69;5526769;32;33574;-65
2023/08/01 07:29:17;;;;;;;805.95;101.82;;;;;;;24.64;60.05;99755.28;5526771;32;33554;-65
2023/08/01 07:32:19;;;;;;;75.80;11.57;;;;;;;24.68;60.04;99767.00;5526716;32;33598;-65
2023/08/01 07:35:22;;;;;;;63.13;5.53;;;;;;;24.71;57.91;99763.50;5526563;32;34415;-65
2023/08/01 07:38:24;;;;;;;302.73;19.62;;;;;;;24.79;60.55;99764.28;5525976;32;34287;-65
2023/08/01 07:41:26;;;;;;;192.00;24.30;;;;;;;24.87;59.45;99760.38;5526386;32;33591;-65
2023/08/01 07:44:31;;;;;;;63.97;6.87;;;;;;;24.90;57.77;99745.88;5526429;32;33565;-65
2023/08/01 07:47:33;;;;;;;569.53;71.87;;;;;;;25.01;61.47;99743.91;5526616;32;34299;-65
2023/08/01 07:50:35;;;;;;;110.35;11.95;;;;;;;25.09;59.63;99750.16;5526620;32;34251;-65
2023/08/01 07:53:38;;;;;;;18.85;4.75;;;;;;;25.13;57.33;99742.72;5525464;32;33661;-65
2023/08/01 07:56:40;;;;;;;63.83;6.93;;;;;;;25.24;57.49;99745.47;5524132;32;34333;-65
2023/08/01 07:59:43;;;;;;;66.97;6.90;;;;;;;25.32;59.57;99736.03;5526335;32;33603;-65
2023/08/01 08:02:46;;;;;;;491.10;58.03;;;;;;;25.34;57.11;99724.69;5526345;32;33233;-65
2023/08/01 08:05:49;;;;;;;51.25;5.47;;;;;;;25.36;58.72;99719.56;5526154;32;33627;-64
2023/08/01 08:08:51;;;;;;;98.80;8.38;;;;;;;25.39;57.84;99714.06;5526060;32;33713;-65
2023/08/01 08:11:54;;;;;;;292.62;33.22;;;;;;;25.48;59.16;99719.91;5526238;32;33548;-65
2023/08/01 08:14:56;;;;;;;830.97;112.62;;;;;;;25.46;56.16;99725.03;5526372;32;34437;-62
2023/08/01 08:17:59;;;;;;;363.42;40.63;;;;;;;25.50;55.21;99717.56;5526147;32;33387;-62
2023/08/01 08:21:01;;;;;;;123.32;16.05;;;;;;;25.51;55.44;99718.34;5526145;32;33409;-61
2023/08/01 08:24:04;;;;;;;639.58;82.82;;;;;;;25.50;56.61;99723.06;5526034;32;33517;-62
2023/08/01 08:27:06;;;;;;;409.08;42.45;;;;;;;25.51;55.33;99715.59;5526052;32;34036;-62
2023/08/01 08:30:09;;;;;;;684.37;90.43;;;;;;;25.50;54.40;99714.81;5525847;32;34304;-61
2023/08/01 08:33:19;;;;;;;133.23;17.05;;;;;;;25.50;53.55;99714.81;5526006;32;34160;-62
2023/08/01 08:36:22;;;;;;;33.00;4.82;;;;;;;25.53;54.63;99714.03;5525395;32;33696;-62
2023/08/01 08:39:24;;;;;;;23.42;4.43;;;;;;;25.61;56.51;99712.03;5525907;32;33643;-61
2023/08/01 08:42:26;;;;;;;13.98;4.00;;;;;;;25.65;55.60;99710.06;5525744;32;33146;-62
2023/08/01 08:45:34;;;;;;;31.95;4.78;;;;;;;25.68;54.25;99698.28;5525497;32;33751;-62
2023/08/01 08:48:37;;;;;;;29.42;4.53;;;;;;;25.73;54.61;99694.34;5544744;32;33606;-61
2023/08/01 08:51:40;;;;;;;31.67;4.60;;;;;;;25.75;54.09;99708.44;5545024;32;34253;-62
2023/08/01 08:54:45;;;;;;;51.30;7.20;;;;;;;25.79;53.54;99700.97;5547923;32;34001;-62
2023/08/01 08:57:50;;;;;;;10.85;3.60;;;;;;;25.77;52.68;99700.59;5547980;32;33666;-62
2023/08/01 09:00:53;;;;;;;113.45;12.32;;;;;;;25.79;54.69;99703.72;5548165;32;34337;-62
2023/08/01 09:03:57;;;;;;;18.52;4.00;;;;;;;25.80;53.76;99693.53;5531515;32;33566;-61
2023/08/01 09:07:05;;;;;;;13.82;3.62;;;;;;;25.86;53.98;99691.94;5528515;32;34280;-61
2023/08/01 09:10:08;;;;;;;16.02;4.28;;;;;;;25.89;52.94;99677.41;5528535;32;33603;-62
2023/08/01 09:13:10;;;;;;;193.73;23.25;;;;;;;26.01;52.14;99683.22;5528325;32;33545;-62
2023/08/01 09:16:15;;;;;;;33.40;4.18;;;;;;;26.04;51.21;99676.16;5527608;32;33687;-62
2023/08/01 09:19:19;;;;;;;18.63;5.07;;;;;;;26.12;50.83;99669.41;5528629;32;34136;-61
2023/08/01 09:22:22;;;;;;;12.43;3.45;;;;;;;26.11;51.31;99662.38;5528369;32;34247;-61
2023/08/01 09:25:34;;;;;;;45.30;4.80;;;;;;;26.00;51.59;99659.69;5527847;32;33563;-65
2023/08/01 09:28:37;;;;;;;10.38;3.05;;;;;;;26.09;52.14;99656.50;5528106;32;33616;-64
2023/08/01 09:31:41;;;;;;;51.65;5.10;;;;;;;26.16;52.60;99648.22;5528823;31;33675;-64
2023/08/01 09:34:44;;;;;;;442.98;51.85;;;;;;;26.24;52.54;99643.44;5527899;32;34259;-64
2023/08/01 09:37:47;;;;;;;15.30;3.70;;;;;;;26.29;51.38;99637.53;5527460;32;33879;-64
2023/08/01 09:40:51;;;;;;;668.17;95.67;;;;;;;26.40;49.43;99627.22;5517915;32;34107;-65
2023/08/01 09:43:54;;;;;;;10.43;4.18;;;;;;;26.45;49.08;99632.28;5527730;32;33684;-65
2023/08/01 09:47:01;;;;;;;7.37;3.00;;;;;;;26.47;50.78;99627.19;5528127;32;34572;-64
2023/08/01 09:50:04;;;;;;;9.77;2.90;;;;;;;26.48;49.44;99634.22;5527271;32;34349;-64
2023/08/01 09:53:07;;;;;;;5.80;2.58;;;;;;;26.51;48.60;99632.66;5512678;32;33877;-63
2023/08/01 09:56:11;;;;;;;5.05;2.95;;;;;;;26.58;48.95;99629.06;5527434;32;34199;-64
2023/08/01 09:59:18;;;;;;;5.20;2.37;;;;;;;26.60;49.14;99632.19;5527838;32;33307;-65
2023/08/01 10:02:24;;;;;;;6.70;2.95;;;;;;;26.56;47.86;99623.97;5527861;32;34336;-65
2023/08/01 10:05:31;;;;;;;7.95;3.00;;;;;;;26.53;49.03;99615.78;5527800;32;33579;-65
2023/08/01 10:08:34;;;;;;;8.68;3.62;;;;;;;26.48;49.88;99614.22;5527836;32;34298;-65
2023/08/01 10:11:39;;;;;;;6.62;2.85;;;;;;;26.45;48.57;99604.00;5527816;32;33683;-64
2023/08/01 10:14:41;;;;;;;10.05;2.97;;;;;;;26.48;49.44;99594.97;5527632;32;33800;-65
2023/08/01 10:17:44;;;;;;;6.80;2.87;;;;;;;26.53;50.55;99596.53;5527735;32;34364;-64
2023/08/01 10:20:47;;;;;;;10.68;2.83;;;;;;;26.52;49.54;99598.47;5527807;32;33678;-65
2023/08/01 10:23:50;;;;;;;25.05;3.92;;;;;;;26.50;51.24;99581.63;5527618;32;34451;-64
2023/08/01 10:26:54;;;;;;;71.03;12.73;;;;;;;26.47;49.86;99585.16;5527864;32;34352;-64
2023/08/01 10:30:03;;;;;;;1166.60;173.70;;;;;;;26.50;49.31;99572.59;5527531;32;34694;-64
2023/08/01 10:33:05;;;;;;;284.33;34.15;;;;;;;26.55;48.23;99561.94;5527521;32;33895;-64
2023/08/01 10:36:17;;;;;;;1961.53;308.70;;;;;;;26.76;47.69;99560.16;5527551;32;34209;-65
2023/08/01 10:39:24;;;;;;;71.37;5.93;;;;;;;26.95;50.69;99556.78;5527557;32;33669;-65
2023/08/01 10:42:40;;;;;;;1652.18;258.35;;;;;;;27.20;45.70;99555.72;5527371;32;34353;-65
2023/08/01 10:45:43;;;;;;;159.57;18.48;;;;;;;27.31;46.98;99559.09;5527476;32;34303;-65
2023/08/01 10:48:52;;;;;;;139.32;13.32;;;;;;;27.39;49.90;99557.84;5527483;32;34172;-65
2023/08/01 10:51:55;;;;;;;180.27;16.52;;;;;;;27.31;44.60;99550.84;5527382;32;34319;-65
2023/08/01 10:55:00;;;;;;;489.25;68.10;;;;;;;27.35;45.79;99529.56;5527485;32;33729;-65
2023/08/01 10:58:02;;;;;;;52.87;5.33;;;;;;;27.42;44.36;99535.00;5527153;32;34340;-65
2023/08/01 11:01:05;;;;;;;365.73;52.83;;;;;;;27.47;44.03;99530.97;5527363;32;34405;-65
2023/08/01 11:04:23;;;;;;;107.20;11.02;;;;;;;27.38;45.08;99517.72;5527251;32;34386;-65
2023/08/01 11:07:26;;;;;;;69.65;8.40;;;;;;;27.39;43.38;99516.56;5527260;32;33583;-65
2023/08/01 11:10:32;;;;;;;21.08;3.30;;;;;;;27.32;43.31;99509.19;5527239;32;33808;-65
2023/08/01 11:13:35;;;;;;;241.73;13.73;;;;;;;27.43;44.83;99505.50;5527220;32;34285;-65
2023/08/01 11:16:38;;;;;;;1999.90;441.27;;;;;;;27.43;43.92;99495.25;5526358;32;33726;-65
2023/08/01 11:19:41;;;;;;;179.10;16.05;;;;;;;27.40;44.83;99501.59;5527094;32;34440;-65
2023/08/01 11:22:56;;;;;;;317.15;34.95;;;;;;;27.52;43.33;99497.50;5527145;32;33433;-65
2023/08/01 11:25:58;;;;;;;478.60;49.20;;;;;;;27.52;42.44;99483.72;5526813;32;33682;-65
2023/08/01 11:29:04;;;;;;;887.63;111.20;;;;;;;27.54;43.02;99490.34;5526860;32;34332;-65
2023/08/01 11:32:07;;;;;;;15.43;3.65;;;;;;;27.55;43.00;99486.44;5526808;32;33860;-65
2023/08/01 11:35:17;;;;;;;31.12;3.45;;;;;;;27.71;43.41;99488.50;5526819;32;34421;-65
2023/08/01 11:38:22;;;;;;;195.50;21.52;;;;;;;27.62;41.69;99472.53;5526738;32;33649;-65
2023/08/01 11:41:26;;;;;;;404.33;39.67;;;;;;;27.63;43.11;99476.06;5526856;32;34286;-65
2023/08/01 11:44:29;;;;;;;67.53;8.63;;;;;;;27.63;43.91;99468.59;5526675;32;34352;-65
2023/08/01 11:47:31;;;;;;;36.85;5.18;;;;;;;27.61;41.42;99454.44;5526612;32;33700;-65
2023/08/01 11:50:34;;;;;;;15.70;3.30;;;;;;;27.79;43.92;99453.44;5526672;32;34438;-65
2023/08/01 11:53:38;;;;;;;16.92;4.05;;;;;;;27.68;42.44;99452.78;5526641;32;34540;-65
2023/08/01 11:56:42;;;;;;;17.30;3.10;;;;;;;27.64;42.13;99448.09;5526599;32;33293;-64
2023/08/01 11:59:50;;;;;;;29.00;3.67;;;;;;;27.77;42.29;99451.06;5526487;32;33705;-64
2023/08/01 12:03:06;;;;;;;1999.90;671.17;;;;;;;27.76;41.33;99437.72;5526421;32;34365;-65
2023/08/01 12:06:09;;;;;;;417.73;59.92;;;;;;;27.83;43.33;99426.59;5526329;32;34310;-65
2023/08/01 12:09:13;;;;;;;1404.13;211.93;;;;;;;27.77;42.05;99422.75;5526240;32;34181;-65
2023/08/01 12:12:16;;;;;;;173.68;13.62;;;;;;;27.77;40.62;99418.03;5526328;32;34447;-65
2023/08/01 12:15:18;;;;;;;13.40;2.80;;;;;;;27.75;41.29;99409.41;5526322;32;34368;-64
2023/08/01 12:18:21;;;;;;;1999.90;662.22;;;;;;;27.76;40.62;99415.69;5525981;32;33711;-65
2023/08/01 12:21:44;;;;;;;174.02;18.65;;;;;;;27.81;40.49;99407.72;5526258;32;33299;-65
2023/08/01 12:24:47;;;;;;;813.12;136.80;;;;;;;27.81;42.60;99391.19;5526173;32;34336;-65
2023/08/01 12:27:49;;;;;;;396.02;51.25;;;;;;;27.82;40.53;99378.22;5526872;32;34413;-65
2023/08/01 12:30:51;;;;;;;480.83;51.45;;;;;;;27.81;40.10;99387.66;5528996;32;34300;-64
2023/08/01 12:33:54;;;;;;;1999.90;725.67;;;;;;;27.79;49.83;99384.56;5528919;32;34273;-64
2023/08/01 12:36:56;;;;;;;57.67;13.00;;;;;;;27.76;41.88;99385.38;5528907;32;33569;-65
2023/08/01 12:39:59;;;;;;;29.08;4.55;;;;;;;27.73;39.20;99378.75;5528879;32;33625;-64
2023/08/01 12:43:01;;;;;;;1999.90;839.53;;;;;;;27.70;39.37;99373.31;5528763;32;33832;-65
2023/08/01 12:46:04;;;;;;;277.60;37.08;;;;;;;27.76;39.92;99369.66;5528858;32;33664;-65
2023/08/01 12:49:06;;;;;;;655.72;84.57;;;;;;;27.79;39.63;99373.56;5528700;32;33449;-65
2023/08/01 12:52:08;;;;;;;23.10;4.50;;;;;;;27.87;40.55;99372.22;5528701;32;34313;-65
2023/08/01 12:55:11;;;;;;;12.68;3.15;;;;;;;27.90;39.75;99365.88;5528899;32;33702;-62
2023/08/01 12:58:14;;;;;;;437.55;55.95;;;;;;;27.90;39.72;99357.59;5528648;32;34439;-63
2023/08/01 13:01:16;;;;;;;1208.55;161.57;;;;;;;28.00;40.33;99353.09;5528741;32;33769;-62
2023/08/01 13:04:19;;;;;;;1916.45;278.23;;;;;;;27.99;41.80;99360.59;5528538;32;34162;-61
2023/08/01 13:07:21;;;;;;;1332.80;183.52;;;;;;;28.02;40.22;99342.44;5528616;32;34469;-62
2023/08/01 13:10:23;;;;;;;1266.53;185.60;;;;;;;28.02;39.69;99345.97;5514460;32;34238;-62
2023/08/01 13:13:26;;;;;;;83.78;10.05;;;;;;;28.01;40.01;99341.66;5528472;32;33709;-62
2023/08/01 13:16:28;;;;;;;1999.90;525.15;;;;;;;27.97;40.22;99342.91;5528621;32;33379;-62
2023/08/01 13:19:31;;;;;;;521.92;61.42;;;;;;;27.94;40.15;99344.53;5528470;32;34333;-62
2023/08/01 13:22:33;;;;;;;53.78;6.25;;;;;;;27.96;40.60;99336.63;5528335;32;33686;-63
2023/08/01 13:25:35;;;;;;;196.63;20.58;;;;;;;27.91;39.62;99326.09;5528443;32;34255;-63
2023/08/01 13:28:38;;;;;;;75.07;7.85;;;;;;;27.89;38.92;99336.78;5528083;32;34310;-62
2023/08/01 13:31:42;;;;;;;20.48;3.47;;;;;;;27.89;39.64;99330.50;5528471;32;33702;-63
2023/08/01 13:34:44;;;;;;;1181.10;213.57;;;;;;;27.94;39.08;99322.50;5528246;32;33223;-62
2023/08/01 13:37:46;;;;;;;124.57;18.98;;;;;;;27.97;39.95;99318.13;5528108;32;34328;-63
2023/08/01 13:40:48;;;;;;;1999.90;645.42;;;;;;;28.07;39.90;99311.62;5528047;32;33880;-63
2023/08/01 13:43:51;;;;;;;586.80;80.60;;;;;;;28.15;41.82;99304.78;5527998;32;34462;-62
2023/08/01 13:46:53;;;;;;;540.62;66.90;;;;;;;28.15;40.12;99298.50;5528275;32;33747;-63
2023/08/01 13:49:56;;;;;;;247.23;27.77;;;;;;;28.15;40.00;99306.75;5527975;32;34347;-63
2023/08/01 13:52:59;;;;;;;12.25;3.05;;;;;;;28.23;40.01;99308.94;5528064;32;33912;-62
2023/08/01 13:56:01;;;;;;;496.37;60.90;;;;;;;28.28;38.65;99299.41;5528075;32;34337;-62
2023/08/01 13:59:03;;;;;;;31.30;5.72;;;;;;;28.32;38.68;99294.56;5528053;32;34346;-62
2023/08/01 14:02:06;;;;;;;24.20;3.53;;;;;;;28.41;37.68;99292.03;5528041;32;33703;-62
2023/08/01 14:05:11;;;;;;;;;;;;;;;28.46;37.94;99296.25;5528398;32;33715;-64
2023/08/01 14:08:13;;;;;;;412.55;48.83;;;;;;;28.40;37.77;99292.47;5527911;32;33989;-64
2023/08/01 14:11:16;;;;;;;154.45;15.82;;;;;;;28.38;43.46;99303.09;5527961;32;33586;-64
2023/08/01 14:14:19;;;;;;;1999.90;383.13;;;;;;;28.27;40.61;99304.09;5527686;32;33646;-65
2023/08/01 14:17:21;;;;;;;1999.90;841.95;;;;;;;28.28;39.97;99299.41;5527866;32;33460;-65
2023/08/01 14:20:23;;;;;;;191.12;27.90;;;;;;;28.42;40.73;99287.31;5527681;32;33707;-65
2023/08/01 14:23:27;;;;;;;58.22;8.77;;;;;;;28.38;39.42;99272.78;5527833;32;33875;-65
2023/08/01 14:26:29;;;;;;;274.58;45.25;;;;;;;28.41;40.32;99266.44;5527633;32;33671;-65
2023/08/01 14:29:32;;;;;;;359.33;45.75;;;;;;;28.30;38.48;99267.44;5527548;32;33672;-65
2023/08/01 14:32:37;;;;;;;1588.10;254.40;;;;;;;28.25;38.51;99256.94;5527592;32;34341;-65
2023/08/01 14:35:39;;;;;;;;;;;;;;;28.23;38.80;99256.56;5527996;32;33637;-65
2023/08/01 14:38:41;;;;;;;722.10;99.97;;;;;;;28.19;40.33;99255.88;5527721;32;33675;-64
2023/08/01 14:41:44;;;;;;;1999.90;831.47;;;;;;;28.26;40.30;99255.72;5527445;32;33777;-64
2023/08/01 14:44:54;;;;;;;1186.32;173.60;;;;;;;28.23;38.82;99251.06;5527462;32;34406;-65
2023/08/01 14:47:56;;;;;;;1927.70;372.25;;;;;;;28.19;38.39;99242.09;5527406;32;33563;-65
2023/08/01 14:50:58;;;;;;;53.13;10.35;;;;;;;28.19;39.25;99239.34;5526466;32;33622;-64
2023/08/01 14:54:01;;;;;;;1040.93;171.35;;;;;;;28.24;38.27;99240.81;5527141;32;33808;-65
2023/08/01 14:57:04;;;;;;;174.27;23.38;;;;;;;28.17;38.51;99232.69;5527264;32;33715;-65
2023/08/01 15:00:07;;;;;;;22.33;3.72;;;;;;;28.13;40.45;99221.00;5527280;32;33686;-64
2023/08/01 15:03:09;;;;;;;27.80;5.90;;;;;;;28.04;39.29;99229.81;5527330;32;33612;-64
2023/08/01 15:06:15;;;;;;;8.15;2.65;;;;;;;28.00;39.98;99229.13;5527269;32;34414;-64
2023/08/01 15:09:17;;;;;;;36.10;7.72;;;;;;;27.95;39.40;99227.66;5527226;32;33759;-64
2023/08/01 15:12:23;;;;;;;63.83;12.13;;;;;;;27.94;40.26;99226.09;5527036;32;34355;-65
2023/08/01 15:15:25;;;;;;;17.42;3.90;;;;;;;28.02;41.08;99221.22;5527148;32;33590;-62
2023/08/01 15:18:28;;;;;;;11.93;3.12;;;;;;;28.00;40.52;99224.41;5527181;32;33800;-62
2023/08/01 15:21:30;;;;;;;7.97;2.42;;;;;;;27.89;40.31;99229.38;5527142;32;34490;-62
2023/08/01 15:24:33;;;;;;;5.55;2.10;;;;;;;27.79;40.35;99219.34;5527041;32;34260;-62
2023/08/01 15:27:35;;;;;;;7.57;2.50;;;;;;;27.77;40.85;99219.75;5526950;32;34379;-62
2023/08/01 15:30:37;;;;;;;9.10;2.65;;;;;;;27.74;41.01;99226.09;5526657;32;33803;-62
2023/08/01 15:33:41;;;;;;;33.58;6.95;;;;;;;27.73;40.73;99221.78;5526909;32;34283;-62
2023/08/01 15:36:47;;;;;;;94.15;18.90;;;;;;;27.72;41.50;99220.25;5526826;32;33689;-62
2023/08/01 15:39:50;;;;;;;13.73;3.75;;;;;;;27.72;43.07;99222.22;5526807;32;33625;-62
2023/08/01 15:42:52;;;;;;;11.32;3.22;;;;;;;27.67;41.30;99208.94;5526871;32;33685;-62
2023/08/01 15:45:54;;;;;;;6.25;2.00;;;;;;;27.60;40.44;99204.38;5526622;32;34027;-62
2023/08/01 15:48:57;;;;;;;10.02;3.03;;;;;;;27.66;39.41;99219.19;5526739;32;34421;-62
2023/08/01 15:51:59;;;;;;;24.17;3.47;;;;;;;27.62;44.04;99222.00;5526635;32;34305;-62
